Time;durP1;ratioP1;P1;durP2;ratioP2;P2;SDS_P1;SDS_P2;PMS_P1;PMS_P2;Temp;Humidity;BMP_temperature;BMP_pressure;BME280_temperature;BME280_humidity;BME280_pressure;Samples;Min_cycle;Max_cycle;Signal;HPM_P1;HPM_P2
2021/10/03 00:02:01;;;;;;;9.05;8.15;;;;;;;19.92;65.80;100550.91;5093345;28;20043;-71
2021/10/03 00:04:30;;;;;;;9.43;8.55;;;;;;;19.87;66.06;100557.81;5093889;28;20032;-71
2021/10/03 00:07:03;;;;;;;10.50;8.40;;;;;;;19.85;66.37;100549.75;5096135;28;20023;-72
2021/10/03 00:09:30;;;;;;;10.48;9.25;;;;;;;19.86;65.55;100551.34;5114719;28;20108;-72
2021/10/03 00:12:02;;;;;;;10.48;8.38;;;;;;;19.88;65.43;100551.75;5096141;28;20027;-73
2021/10/03 00:14:30;;;;;;;10.73;8.18;;;;;;;19.80;66.19;100558.66;5096107;28;20033;-71
2021/10/03 00:16:59;;;;;;;14.15;9.40;;;;;;;19.77;66.14;100570.00;5096577;28;20024;-71
2021/10/03 00:19:28;;;;;;;9.18;8.35;;;;;;;19.66;66.82;100572.91;5096005;28;20034;-72
2021/10/03 00:21:55;;;;;;;11.80;9.13;;;;;;;19.73;65.83;100572.06;5095997;28;20115;-71
2021/10/03 00:24:20;;;;;;;11.32;9.10;;;;;;;19.75;65.31;100578.88;5095965;28;20035;-72
2021/10/03 00:26:46;;;;;;;14.65;10.80;;;;;;;19.79;65.08;100570.38;5095773;28;20084;-71
2021/10/03 00:29:15;;;;;;;11.30;10.10;;;;;;;19.70;65.54;100556.72;5095810;28;20031;-72
2021/10/03 00:31:43;;;;;;;12.93;10.15;;;;;;;19.65;66.24;100557.19;5095821;28;20038;-73
2021/10/03 00:34:09;;;;;;;11.05;9.75;;;;;;;19.60;66.08;100552.81;5096308;28;20074;-72
2021/10/03 00:36:39;;;;;;;14.00;11.52;;;;;;;19.62;66.26;100553.19;5095715;28;20038;-72
2021/10/03 00:39:08;;;;;;;11.50;10.30;;;;;;;19.56;66.90;100557.63;5095738;28;20115;-71
2021/10/03 00:41:38;;;;;;;12.65;11.38;;;;;;;19.47;66.76;100536.75;5114491;28;20020;-71
2021/10/03 00:44:06;;;;;;;14.75;10.70;;;;;;;19.50;67.45;100544.41;5114314;28;20111;-70
2021/10/03 00:46:33;;;;;;;12.60;11.20;;;;;;;19.56;67.72;100551.19;5098779;28;20081;-72
2021/10/03 00:48:58;;;;;;;13.45;11.65;;;;;;;19.65;66.52;100557.19;5099966;28;20106;-72
2021/10/03 00:51:24;;;;;;;12.15;10.15;;;;;;;19.58;66.59;100548.75;5099868;28;20123;-73
2021/10/03 00:53:56;;;;;;;11.43;10.25;;;;;;;19.55;66.89;100546.78;5099877;28;20028;-71
2021/10/03 00:56:27;;;;;;;11.07;9.88;;;;;;;19.60;66.78;100540.69;5099406;28;20085;-71
2021/10/03 00:58:55;;;;;;;12.00;10.30;;;;;;;19.56;66.75;100534.25;5099771;28;20032;-73
2021/10/03 01:01:24;;;;;;;12.55;10.23;;;;;;;19.61;66.64;100531.03;5099574;28;20028;-72
2021/10/03 01:03:52;;;;;;;13.27;9.82;;;;;;;19.57;66.69;100535.84;5099877;28;20481;-72
2021/10/03 01:06:21;;;;;;;13.63;10.40;;;;;;;19.54;67.29;100536.69;5095634;28;20087;-72
2021/10/03 01:08:49;;;;;;;16.15;10.20;;;;;;;19.50;67.95;100519.00;5096126;28;20024;-72
2021/10/03 01:11:17;;;;;;;14.60;9.98;;;;;;;19.45;68.15;100516.63;5096609;28;20364;-73
2021/10/03 01:13:49;;;;;;;11.02;9.45;;;;;;;19.45;67.83;100508.16;5079472;28;20064;-71
2021/10/03 01:16:16;;;;;;;13.55;9.98;;;;;;;19.47;67.87;100522.63;5096610;28;20028;-71
2021/10/03 01:18:42;;;;;;;11.55;9.18;;;;;;;19.41;67.63;100515.84;5096243;28;20028;-73
2021/10/03 01:21:08;;;;;;;12.20;9.27;;;;;;;19.44;67.13;100510.19;5095752;28;20483;-71
2021/10/03 01:23:37;;;;;;;11.85;9.80;;;;;;;19.47;67.46;100511.34;5096256;28;20051;-72
2021/10/03 01:26:09;;;;;;;11.35;10.15;;;;;;;19.47;67.52;100511.34;5095512;28;20471;-71
2021/10/03 01:28:45;;;;;;;12.73;10.27;;;;;;;19.46;67.51;100498.47;5095557;28;20032;-73
2021/10/03 01:31:16;;;;;;;13.80;10.30;;;;;;;19.42;67.79;100501.31;5096007;28;20036;-72
2021/10/03 01:33:48;;;;;;;11.35;9.55;;;;;;;19.41;68.33;100504.56;5095418;28;20032;-70
2021/10/03 01:36:18;;;;;;;12.35;9.50;;;;;;;19.38;67.18;100497.72;5096180;28;20027;-70
2021/10/03 01:38:44;;;;;;;10.80;9.52;;;;;;;19.45;67.22;100502.50;5095845;28;20056;-71
2021/10/03 01:41:10;;;;;;;12.13;10.07;;;;;;;19.41;67.22;100494.06;5095750;28;20462;-70
2021/10/03 01:43:40;;;;;;;9.55;8.50;;;;;;;19.37;67.03;100494.09;5095216;28;20024;-68
2021/10/03 01:46:15;;;;;;;11.15;9.20;;;;;;;19.42;66.95;100490.03;5095618;28;20026;-71
2021/10/03 01:48:46;;;;;;;11.13;9.00;;;;;;;19.43;66.33;100507.75;5095637;28;20469;-71
2021/10/03 01:51:14;;;;;;;10.27;8.70;;;;;;;19.36;67.17;100494.50;5095347;28;20545;-72
2021/10/03 01:53:59;;;;;;;13.30;10.23;;;;;;;19.31;67.94;100501.41;5095176;28;20071;-69
2021/10/03 01:56:27;;;;;;;10.07;9.05;;;;;;;19.26;68.53;100510.28;5095212;28;20032;-71
2021/10/03 01:59:04;;;;;;;12.00;9.50;;;;;;;19.26;68.48;100504.66;5095179;28;20032;-71
2021/10/03 02:01:47;;;;;;;10.77;9.68;;;;;;;19.27;68.20;100506.25;5095702;28;20119;-70
2021/10/03 02:04:21;;;;;;;13.60;9.55;;;;;;;19.32;67.38;100503.00;5095115;28;20024;-71
2021/10/03 02:06:49;;;;;;;10.02;9.02;;;;;;;19.32;67.35;100505.81;5074636;28;20116;-69
2021/10/03 02:09:22;;;;;;;12.48;9.27;;;;;;;19.32;66.98;100496.53;5074749;28;20028;-70
2021/10/03 02:11:51;;;;;;;10.02;8.75;;;;;;;19.28;67.60;100499.41;5074832;28;20170;-71
2021/10/03 02:14:26;;;;;;;10.00;8.68;;;;;;;19.32;66.54;100496.53;5074713;28;20063;-70
2021/10/03 02:16:59;;;;;;;11.38;10.23;;;;;;;19.24;66.73;100490.19;5075419;28;20117;-71
2021/10/03 02:19:26;;;;;;;10.52;9.38;;;;;;;19.21;66.67;100485.34;5076202;28;20059;-70
2021/10/03 02:21:54;;;;;;;11.80;10.05;;;;;;;19.22;66.78;100492.59;5075326;28;20504;-71
2021/10/03 02:24:20;;;;;;;11.77;10.57;;;;;;;19.22;67.25;100489.78;5074484;28;20028;-70
2021/10/03 02:26:52;;;;;;;11.82;10.63;;;;;;;19.22;67.44;100492.59;5074927;28;20029;-69
2021/10/03 02:29:20;;;;;;;9.98;9.02;;;;;;;19.25;67.07;100490.97;5074399;28;20038;-69
2021/10/03 02:31:46;;;;;;;10.45;8.82;;;;;;;19.27;66.58;100497.78;5074176;28;20066;-71
2021/10/03 02:34:14;;;;;;;10.32;9.32;;;;;;;19.23;67.23;100494.22;5074548;28;20105;-70
2021/10/03 02:36:45;;;;;;;11.63;9.55;;;;;;;19.16;67.70;100487.81;5074255;28;20032;-70
2021/10/03 02:39:11;;;;;;;12.15;11.00;;;;;;;19.19;67.05;100496.25;5074198;28;20016;-70
2021/10/03 02:41:40;;;;;;;18.05;16.45;;;;;;;19.14;66.86;100485.41;5058044;28;20032;-71
2021/10/03 02:44:11;;;;;;;11.85;10.77;;;;;;;19.23;65.76;100499.03;5074107;28;20064;-71
2021/10/03 02:46:40;;;;;;;14.40;12.93;;;;;;;19.09;66.98;100500.75;5074795;28;20043;-71
2021/10/03 02:49:08;;;;;;;22.02;19.92;;;;;;;19.04;67.54;100501.19;5074315;28;20047;-71
2021/10/03 02:51:34;;;;;;;27.50;24.77;;;;;;;18.99;67.07;100500.81;5073979;28;20035;-71
2021/10/03 02:54:02;;;;;;;25.55;22.90;;;;;;;19.01;67.31;100499.19;5073841;28;20024;-70
2021/10/03 02:56:32;;;;;;;29.17;26.27;;;;;;;19.01;67.75;100513.28;5074424;28;20097;-70
2021/10/03 02:59:01;;;;;;;26.38;23.75;;;;;;;18.97;67.76;100504.06;5074127;28;20032;-70
2021/10/03 03:01:30;;;;;;;21.08;18.95;;;;;;;18.96;67.26;100499.66;5073734;28;20040;-71
2021/10/03 03:03:58;;;;;;;19.17;16.55;;;;;;;19.00;67.45;100502.41;5073697;28;20033;-71
2021/10/03 03:06:29;;;;;;;17.08;13.98;;;;;;;18.97;67.25;100509.69;5090589;28;20406;-71
2021/10/03 03:08:57;;;;;;;14.82;12.70;;;;;;;19.10;66.26;100507.19;5093291;28;20053;-72
2021/10/03 03:11:28;;;;;;;13.25;11.68;;;;;;;18.98;67.83;100516.13;5093792;28;20066;-70
2021/10/03 03:13:53;;;;;;;16.15;14.55;;;;;;;19.03;67.27;100502.41;5093696;28;20024;-70
2021/10/03 03:16:22;;;;;;;15.48;13.05;;;;;;;19.03;66.75;100518.53;5093637;28;20028;-72
2021/10/03 03:18:50;;;;;;;11.30;10.00;;;;;;;19.04;66.39;100514.50;5093904;28;20039;-71
2021/10/03 03:21:21;;;;;;;12.98;10.18;;;;;;;19.03;66.27;100512.88;5094167;28;20028;-70
2021/10/03 03:23:47;;;;;;;13.88;11.25;;;;;;;18.87;66.77;100521.84;5093739;28;20482;-69
2021/10/03 03:26:16;;;;;;;12.60;10.25;;;;;;;18.89;67.28;100521.41;5093404;28;20079;-71
2021/10/03 03:28:47;;;;;;;12.98;10.93;;;;;;;18.83;67.45;100516.22;5093401;28;20114;-69
2021/10/03 03:31:15;;;;;;;12.88;11.68;;;;;;;18.83;67.31;100521.84;5093388;28;20108;-70
2021/10/03 03:33:43;;;;;;;21.25;19.27;;;;;;;18.78;67.94;100518.66;5093310;28;20028;-70
2021/10/03 03:36:09;;;;;;;28.50;25.73;;;;;;;18.75;67.81;100509.03;5093267;28;20119;-72
2021/10/03 03:38:36;;;;;;;24.17;21.67;;;;;;;18.72;67.38;100509.03;5093199;28;20103;-71
2021/10/03 03:41:06;;;;;;;21.08;19.02;;;;;;;18.69;68.14;100516.28;5093776;28;20031;-70
2021/10/03 03:43:32;;;;;;;42.15;37.83;;;;;;;18.68;67.86;100528.78;5093468;28;20472;-74
2021/10/03 03:45:58;;;;;;;26.33;23.52;;;;;;;18.66;67.47;100508.63;5093349;28;20406;-72
2021/10/03 03:48:26;;;;;;;14.18;12.75;;;;;;;18.72;67.39;100523.13;5093387;28;20027;-71
2021/10/03 03:50:52;;;;;;;13.48;12.07;;;;;;;18.58;68.48;100521.94;5093094;28;20032;-72
2021/10/03 03:53:23;;;;;;;18.25;16.38;;;;;;;18.61;68.01;100519.53;5093001;28;20077;-71
2021/10/03 03:55:54;;;;;;;13.85;12.35;;;;;;;18.69;67.75;100516.28;5092970;28;20024;-70
2021/10/03 03:58:26;;;;;;;10.23;9.00;;;;;;;18.61;68.63;100520.34;5092919;28;20032;-73
2021/10/03 04:00:54;;;;;;;11.18;9.07;;;;;;;18.62;68.31;100516.28;5089011;28;20028;-70
2021/10/03 04:03:23;;;;;;;9.65;8.65;;;;;;;18.55;68.30;100517.13;5092826;28;20077;-71
2021/10/03 04:05:50;;;;;;;9.13;8.18;;;;;;;18.50;68.59;100516.75;5092743;28;20070;-71
2021/10/03 04:08:17;;;;;;;8.90;7.90;;;;;;;18.53;69.33;100519.53;5092753;28;20474;-69
2021/10/03 04:10:46;;;;;;;9.93;7.50;;;;;;;18.50;69.16;100522.41;5093778;28;20463;-72
2021/10/03 04:13:17;;;;;;;10.80;8.27;;;;;;;18.64;68.05;100524.34;5092457;28;20020;-71
2021/10/03 04:15:48;;;;;;;9.30;7.55;;;;;;;18.56;68.68;100523.56;5092916;28;20020;-71
2021/10/03 04:18:17;;;;;;;9.63;8.63;;;;;;;18.51;69.01;100524.00;5092793;28;20028;-71
2021/10/03 04:20:48;;;;;;;8.65;7.65;;;;;;;18.49;69.37;100524.41;5092298;28;20028;-72
2021/10/03 04:23:17;;;;;;;8.27;7.47;;;;;;;18.56;68.98;100523.56;5092830;28;20538;-71
2021/10/03 04:25:45;;;;;;;9.35;8.13;;;;;;;18.56;69.10;100517.94;5092436;28;20077;-71
2021/10/03 04:28:13;;;;;;;8.00;7.30;;;;;;;18.60;69.22;100518.72;5093002;28;20024;-71
2021/10/03 04:30:39;;;;;;;8.13;7.30;;;;;;;18.72;68.41;100515.47;5092986;28;20032;-72
2021/10/03 04:33:08;;;;;;;8.77;7.80;;;;;;;18.72;68.85;100511.84;5092460;28;20462;-73
2021/10/03 04:35:34;;;;;;;9.20;7.13;;;;;;;18.73;69.10;100511.44;5090006;28;20040;-72
2021/10/03 04:38:00;;;;;;;8.23;7.38;;;;;;;18.72;69.26;100514.69;5093073;28;20043;-71
2021/10/03 04:40:28;;;;;;;8.90;6.65;;;;;;;18.83;69.33;100507.75;5092195;28;20115;-70
2021/10/03 04:42:54;;;;;;;7.80;7.00;;;;;;;18.85;69.55;100512.97;5092532;28;20032;-70
2021/10/03 04:45:22;;;;;;;8.23;7.35;;;;;;;18.88;69.43;100520.63;5092294;28;20423;-71
2021/10/03 04:47:51;;;;;;;8.90;7.93;;;;;;;18.84;69.56;100517.81;5092549;28;20390;-70
2021/10/03 04:50:16;;;;;;;7.95;7.18;;;;;;;18.86;69.68;100516.63;5092268;28;20024;-72
2021/10/03 04:52:45;;;;;;;9.43;7.40;;;;;;;18.80;70.13;100517.06;5092504;28;20031;-70
2021/10/03 04:55:13;;;;;;;8.05;7.25;;;;;;;18.75;70.63;100514.66;5092952;28;20455;-70
2021/10/03 04:57:42;;;;;;;8.68;7.40;;;;;;;18.80;70.29;100510.59;5092451;28;20024;-70
2021/10/03 05:00:09;;;;;;;7.22;6.53;;;;;;;18.82;70.85;100508.19;5091491;28;20044;-72
2021/10/03 05:02:35;;;;;;;8.32;6.72;;;;;;;18.90;70.96;100515.38;5092409;28;20059;-72
2021/10/03 05:05:00;;;;;;;7.57;6.88;;;;;;;18.88;70.80;100514.19;5092088;28;20508;-70
2021/10/03 05:07:26;;;;;;;7.68;6.90;;;;;;;18.88;71.20;100519.81;5091912;28;20024;-70
2021/10/03 05:09:51;;;;;;;7.93;6.75;;;;;;;18.96;71.37;100525.03;5092823;28;20036;-70
2021/10/03 05:12:19;;;;;;;6.85;6.22;;;;;;;18.99;71.52;100531.84;5092838;28;20386;-70
2021/10/03 05:14:45;;;;;;;7.53;6.75;;;;;;;19.16;70.83;100532.94;5092004;28;20533;-69
2021/10/03 05:17:13;;;;;;;7.05;6.35;;;;;;;19.29;70.70;100529.22;5091808;28;20110;-71
2021/10/03 05:19:41;;;;;;;11.27;7.10;;;;;;;19.48;69.98;100533.50;5091580;28;20530;-70
2021/10/03 05:22:07;;;;;;;7.53;6.32;;;;;;;19.53;70.38;100530.22;5091962;28;20089;-71
2021/10/03 05:24:36;;;;;;;9.88;8.60;;;;;;;19.73;70.03;100543.81;5091868;28;20044;-69
2021/10/03 05:27:04;;;;;;;26.65;22.15;;;;;;;20.03;68.92;100541.13;5091861;28;20467;-70
2021/10/03 05:29:30;;;;;;;33.63;24.15;;;;;;;20.42;67.70;100551.97;5074990;28;20482;-72
2021/10/03 05:31:56;;;;;;;20.80;18.70;;;;;;;20.76;66.23;100554.03;5093542;28;20024;-72
2021/10/03 05:34:27;;;;;;;22.35;19.50;;;;;;;21.04;64.82;100561.34;5095689;28;20032;-71
2021/10/03 05:36:53;;;;;;;16.02;14.32;;;;;;;21.34;63.77;100560.50;5095064;28;20024;-71
2021/10/03 05:39:18;;;;;;;28.73;25.75;;;;;;;21.60;62.79;100552.44;5095420;28;20043;-72
2021/10/03 05:41:44;;;;;;;22.55;18.67;;;;;;;21.86;61.93;100562.09;5095484;28;20123;-73
2021/10/03 05:44:10;;;;;;;12.93;11.63;;;;;;;22.16;60.70;100564.84;5095257;28;20474;-71
2021/10/03 05:46:36;;;;;;;8.98;7.60;;;;;;;22.48;60.38;100564.22;5094763;28;20028;-72
2021/10/03 05:49:02;;;;;;;7.20;6.50;;;;;;;22.81;58.74;100564.34;5095377;28;20542;-72
2021/10/03 05:51:30;;;;;;;5.70;5.03;;;;;;;23.07;57.82;100565.44;5095445;28;20535;-73
2021/10/03 05:53:59;;;;;;;5.68;5.15;;;;;;;23.42;57.08;100566.63;5095208;28;20028;-70
2021/10/03 05:56:24;;;;;;;6.07;5.57;;;;;;;23.74;56.38;100568.72;5094496;28;20043;-71
2021/10/03 05:58:50;;;;;;;4.72;4.32;;;;;;;23.89;54.84;100560.63;5095264;28;20031;-72
2021/10/03 06:01:16;;;;;;;4.88;4.43;;;;;;;24.20;53.96;100568.75;5095104;28;20111;-70
2021/10/03 06:03:41;;;;;;;6.93;4.43;;;;;;;24.17;54.88;100567.59;5094970;28;20489;-72
2021/10/03 06:06:07;;;;;;;6.07;4.97;;;;;;;24.69;52.88;100562.94;5094674;28;20059;-71
2021/10/03 06:08:33;;;;;;;4.55;4.15;;;;;;;24.92;52.09;100576.09;5111702;28;20032;-70
2021/10/03 06:10:58;;;;;;;5.20;4.70;;;;;;;24.68;53.33;100575.59;5094722;28;20028;-73
2021/10/03 06:13:27;;;;;;;7.90;5.07;;;;;;;25.41;51.25;100572.97;5094761;28;20037;-72
2021/10/03 06:15:57;;;;;;;6.20;4.43;;;;;;;25.53;49.76;100572.97;5094947;28;20335;-73
2021/10/03 06:18:26;;;;;;;4.38;3.97;;;;;;;25.44;50.78;100572.06;5094396;28;20035;-71
2021/10/03 06:20:54;;;;;;;4.72;4.32;;;;;;;24.90;51.58;100568.00;5094428;28;20032;-73
2021/10/03 06:23:20;;;;;;;4.82;4.03;;;;;;;24.67;51.34;100576.84;5094876;28;20327;-71
2021/10/03 06:25:46;;;;;;;4.97;4.10;;;;;;;24.87;52.00;100574.59;5094374;28;20028;-73
2021/10/03 06:28:11;;;;;;;4.95;4.43;;;;;;;25.66;50.18;100583.56;5094467;28;20382;-73
2021/10/03 06:30:40;;;;;;;4.88;4.20;;;;;;;26.35;48.60;100575.09;5094515;28;20028;-71
2021/10/03 06:33:08;;;;;;;4.35;3.95;;;;;;;26.58;47.71;100580.41;5094504;28;20516;-72
2021/10/03 06:35:36;;;;;;;4.93;4.03;;;;;;;26.99;46.29;100581.28;5095200;28;20048;-71
2021/10/03 06:38:08;;;;;;;4.22;3.80;;;;;;;26.50;47.54;100578.25;5094393;28;20115;-72
2021/10/03 06:40:37;;;;;;;4.15;3.63;;;;;;;26.36;47.30;100573.81;5094595;28;20054;-72
2021/10/03 06:43:02;;;;;;;4.63;4.22;;;;;;;27.20;45.79;100588.25;5093094;28;20034;-72
2021/10/03 06:45:30;;;;;;;5.28;4.40;;;;;;;27.55;44.51;100593.81;5094634;28;20045;-71
2021/10/03 06:48:02;;;;;;;6.03;3.63;;;;;;;27.65;44.09;100593.38;5094069;28;20082;-72
2021/10/03 06:50:27;;;;;;;5.28;3.65;;;;;;;27.31;44.59;100590.69;5094640;28;20417;-71
2021/10/03 06:52:56;;;;;;;5.53;3.75;;;;;;;27.55;44.26;100594.63;5093927;28;20032;-72
2021/10/03 06:55:21;;;;;;;4.63;3.72;;;;;;;28.03;43.62;100595.09;5093411;28;20063;-73
2021/10/03 06:57:52;;;;;;;4.07;3.63;;;;;;;28.41;42.72;100591.03;5093835;28;20036;-72
2021/10/03 07:00:18;;;;;;;4.32;3.65;;;;;;;28.01;42.88;100597.63;5093840;28;20036;-73
2021/10/03 07:02:44;;;;;;;3.95;3.50;;;;;;;28.49;41.79;100594.38;5093766;28;20119;-71
2021/10/03 07:05:09;;;;;;;3.75;3.45;;;;;;;29.00;41.51;100594.50;5093608;28;20056;-73
2021/10/03 07:07:35;;;;;;;3.30;3.00;;;;;;;28.93;41.10;100597.69;5093682;28;20035;-71
2021/10/03 07:10:05;;;;;;;3.85;3.55;;;;;;;28.72;40.78;100599.47;5093601;28;20039;-72
2021/10/03 07:12:31;;;;;;;4.18;3.72;;;;;;;29.09;40.08;100600.22;5093839;28;20543;-73
2021/10/03 07:14:59;;;;;;;3.35;3.05;;;;;;;28.83;40.42;100613.28;5094150;28;20043;-71
2021/10/03 07:17:25;;;;;;;3.55;3.00;;;;;;;29.58;39.64;100613.44;5093983;28;20034;-72
2021/10/03 07:19:50;;;;;;;5.55;2.90;;;;;;;29.27;38.81;100607.94;5093649;28;20032;-72
2021/10/03 07:22:16;;;;;;;3.15;2.92;;;;;;;28.77;40.08;100616.00;5093292;28;20028;-70
2021/10/03 07:24:42;;;;;;;5.35;3.85;;;;;;;29.54;39.82;100621.41;5093870;28;20032;-71
2021/10/03 07:27:07;;;;;;;4.57;3.90;;;;;;;29.09;39.64;100623.13;5093178;28;20492;-71
2021/10/03 07:29:34;;;;;;;4.75;4.10;;;;;;;29.00;39.48;100622.34;5093205;28;20039;-70
2021/10/03 07:32:06;;;;;;;4.40;4.00;;;;;;;29.07;40.19;100631.41;5093247;28;20123;-70
2021/10/03 07:34:33;;;;;;;6.05;4.03;;;;;;;28.38;41.13;100626.31;5093023;28;20028;-72
2021/10/03 07:37:03;;;;;;;5.80;3.78;;;;;;;27.97;42.16;100630.53;5093369;28;20115;-71
2021/10/03 07:39:29;;;;;;;3.65;3.35;;;;;;;27.67;43.12;100625.16;5092896;28;20039;-71
2021/10/03 07:41:58;;;;;;;4.38;3.97;;;;;;;28.43;41.60;100620.75;5093180;28;20048;-71
2021/10/03 07:44:26;;;;;;;4.20;3.63;;;;;;;28.51;40.60;100624.09;5092925;28;20509;-70
2021/10/03 07:46:52;;;;;;;4.90;4.50;;;;;;;28.45;41.18;100628.88;5092789;28;20046;-73
2021/10/03 07:49:17;;;;;;;5.50;5.00;;;;;;;28.33;41.51;100626.94;5092697;28;20539;-71
2021/10/03 07:51:43;;;;;;;4.65;4.25;;;;;;;29.26;39.58;100625.63;5093084;28;20115;-72
2021/10/03 07:54:09;;;;;;;4.57;4.03;;;;;;;29.58;38.76;100629.84;5092685;28;20088;-72
2021/10/03 07:56:35;;;;;;;4.78;4.05;;;;;;;29.92;38.19;100631.44;5092554;28;20032;-72
2021/10/03 07:59:04;;;;;;;4.90;4.18;;;;;;;30.07;38.51;100625.78;5092771;28;20042;-71
2021/10/03 08:01:30;;;;;;;6.28;5.68;;;;;;;29.40;39.07;100628.63;5092438;28;20415;-71
2021/10/03 08:03:55;;;;;;;7.25;5.57;;;;;;;29.49;39.29;100633.50;5092307;28;20043;-71
2021/10/03 08:06:22;;;;;;;5.63;3.60;;;;;;;29.07;39.38;100622.81;5091970;28;20077;-73
2021/10/03 08:08:50;;;;;;;5.03;4.32;;;;;;;28.04;42.15;100631.00;5075645;28;20177;-71
2021/10/03 08:11:23;;;;;;;4.80;4.30;;;;;;;28.57;41.53;100627.94;5092301;28;20057;-72
2021/10/03 08:13:49;;;;;;;4.57;3.90;;;;;;;27.97;40.64;100631.31;5092782;28;20165;-70
2021/10/03 08:16:16;;;;;;;3.90;3.60;;;;;;;28.36;40.40;100629.66;5092511;28;20485;-71
2021/10/03 08:18:46;;;;;;;4.40;3.65;;;;;;;27.98;40.03;100632.91;5092248;28;20028;-71
2021/10/03 08:21:13;;;;;;;3.90;3.53;;;;;;;28.27;39.66;100629.63;5092163;28;20031;-71
2021/10/03 08:23:38;;;;;;;3.30;3.00;;;;;;;28.38;38.48;100627.09;5093792;28;20028;-71
2021/10/03 08:26:07;;;;;;;3.55;3.25;;;;;;;28.51;37.71;100624.09;5092136;28;20040;-73
2021/10/03 08:28:36;;;;;;;3.60;3.28;;;;;;;27.95;38.65;100633.84;5092465;28;20050;-71
2021/10/03 08:31:07;;;;;;;3.25;3.00;;;;;;;27.92;39.02;100626.22;5092748;28;20374;-71
2021/10/03 08:33:33;;;;;;;3.38;3.15;;;;;;;28.56;36.89;100620.63;5092217;28;20020;-73
2021/10/03 08:36:02;;;;;;;3.40;3.10;;;;;;;28.56;37.13;100622.69;5092144;28;20024;-73
2021/10/03 08:38:30;;;;;;;3.38;3.10;;;;;;;28.31;37.92;100626.59;5091920;28;20027;-72
2021/10/03 08:40:56;;;;;;;3.40;3.10;;;;;;;28.62;36.37;100633.00;5092011;28;20032;-73
2021/10/03 08:43:22;;;;;;;3.83;3.53;;;;;;;29.04;35.91;100615.19;5092376;28;20032;-73
2021/10/03 08:45:53;;;;;;;3.83;3.53;;;;;;;29.80;35.35;100618.13;5091647;28;20642;-73
2021/10/03 08:48:19;;;;;;;4.07;3.67;;;;;;;30.75;33.66;100623.88;5091786;28;20493;-72
2021/10/03 08:50:46;;;;;;;3.65;3.35;;;;;;;31.62;32.26;100620.69;5091818;28;20115;-72
2021/10/03 08:53:17;;;;;;;3.20;3.00;;;;;;;32.12;30.68;100635.09;5091306;28;20039;-72
2021/10/03 08:55:44;;;;;;;3.35;3.15;;;;;;;31.23;32.38;100625.78;5091544;28;20035;-73
2021/10/03 08:58:09;;;;;;;4.07;3.67;;;;;;;30.17;33.29;100630.19;5091554;28;20116;-73
2021/10/03 09:00:45;;;;;;;3.53;3.33;;;;;;;29.90;33.70;100631.13;5091656;28;20047;-72
2021/10/03 09:03:12;;;;;;;4.25;3.60;;;;;;;29.05;35.27;100628.22;5092848;28;20024;-74
2021/10/03 09:05:44;;;;;;;3.20;2.97;;;;;;;29.29;35.29;100636.13;5091246;28;20078;-72
2021/10/03 09:08:16;;;;;;;3.50;3.20;;;;;;;29.67;34.00;100632.66;5095654;28;20028;-73
2021/10/03 09:11:03;;;;;;;3.33;3.05;;;;;;;30.00;34.39;100632.66;5095784;28;20028;-72
2021/10/03 09:13:32;;;;;;;3.80;3.50;;;;;;;30.84;32.55;100630.81;5097158;28;20069;-74
2021/10/03 09:16:06;;;;;;;3.60;3.30;;;;;;;30.61;33.25;100624.59;5096165;28;20408;-73
2021/10/03 09:18:48;;;;;;;4.05;3.75;;;;;;;30.57;32.66;100626.84;5096394;28;20373;-73
2021/10/03 09:21:38;;;;;;;3.63;3.33;;;;;;;29.22;34.96;100632.31;5095206;28;20495;-72
2021/10/03 09:24:06;;;;;;;3.60;3.30;;;;;;;28.56;35.53;100643.50;5095885;28;20119;-74
2021/10/03 09:26:33;;;;;;;3.95;3.47;;;;;;;29.16;35.29;100628.50;5095692;28;20081;-74
2021/10/03 09:29:19;;;;;;;5.85;4.00;;;;;;;29.42;34.93;100633.88;5095690;28;20032;-71
2021/10/03 09:32:14;;;;;;;3.60;3.30;;;;;;;30.68;32.39;100618.50;5095556;28;20035;-72
2021/10/03 09:34:51;;;;;;;5.25;4.47;;;;;;;30.96;32.59;100638.38;5095488;28;20058;-73
2021/10/03 09:37:25;;;;;;;4.78;3.80;;;;;;;29.69;34.48;100636.66;5095446;28;20024;-71
2021/10/03 09:40:04;;;;;;;6.07;3.83;;;;;;;29.41;34.49;100638.00;5096143;28;20032;-72
2021/10/03 09:42:30;;;;;;;3.90;3.60;;;;;;;29.68;33.73;100637.13;5095920;28;20365;-71
2021/10/03 09:45:11;;;;;;;4.00;3.70;;;;;;;30.39;32.79;100635.63;5095012;28;20028;-73
2021/10/03 09:47:39;;;;;;;3.70;3.40;;;;;;;29.64;33.32;100628.69;5094882;28;20120;-73
2021/10/03 09:50:10;;;;;;;3.80;3.50;;;;;;;29.45;33.56;100635.75;5095152;28;20158;-73
2021/10/03 09:52:37;;;;;;;3.80;3.50;;;;;;;29.37;34.05;100631.66;5095556;28;20411;-71
2021/10/03 09:55:05;;;;;;;3.33;3.13;;;;;;;30.15;32.52;100636.44;5094787;28;20035;-73
2021/10/03 09:57:31;;;;;;;4.05;3.65;;;;;;;31.12;31.33;100623.50;5095102;28;20028;-73
2021/10/03 09:59:57;;;;;;;3.65;3.30;;;;;;;31.35;31.43;100624.72;5094788;28;20119;-73
2021/10/03 10:02:23;;;;;;;3.40;3.20;;;;;;;31.89;30.08;100627.41;5061361;28;20032;-72
2021/10/03 10:04:52;;;;;;;2.95;2.75;;;;;;;32.31;29.92;100627.72;5094594;28;20052;-73
2021/10/03 10:07:19;;;;;;;3.90;3.50;;;;;;;32.63;28.97;100632.88;5096085;28;20044;-72
2021/10/03 10:09:47;;;;;;;3.58;3.28;;;;;;;32.83;29.01;100619.22;5096011;28;20036;-72
2021/10/03 10:12:16;;;;;;;3.15;2.85;;;;;;;32.66;27.67;100621.13;5094195;28;20032;-74
2021/10/03 10:14:46;;;;;;;2.83;2.60;;;;;;;31.79;28.53;100615.19;5094507;28;20039;-75
2021/10/03 10:17:30;;;;;;;2.88;2.67;;;;;;;30.91;29.56;100613.97;5094079;28;20096;-74
2021/10/03 10:19:58;;;;;;;10.98;2.90;;;;;;;30.38;30.54;100605.34;5093813;28;20157;-74
2021/10/03 10:22:28;;;;;;;3.17;2.88;;;;;;;30.30;30.95;100604.13;5094082;28;20127;-75
2021/10/03 10:25:16;;;;;;;3.25;2.58;;;;;;;29.50;31.96;100597.81;5094915;28;20036;-73
2021/10/03 10:27:48;;;;;;;3.03;2.83;;;;;;;29.42;32.64;100593.75;5094350;28;20031;-72
2021/10/03 10:30:18;;;;;;;3.00;2.80;;;;;;;29.41;31.91;100604.41;5094244;28;20111;-72
2021/10/03 10:33:00;;;;;;;2.85;2.65;;;;;;;29.51;32.22;100602.31;5095297;28;20107;-72
2021/10/03 10:35:26;;;;;;;3.25;3.03;;;;;;;29.35;32.30;100594.06;5094311;28;20089;-71
2021/10/03 10:37:54;;;;;;;3.20;2.90;;;;;;;30.02;31.73;100589.94;5094543;28;20077;-71
2021/10/03 10:40:26;;;;;;;3.75;3.13;;;;;;;29.84;31.87;100578.59;5094160;28;20036;-72
2021/10/03 10:42:52;;;;;;;;;;;;;;;30.38;31.98;100591.78;5094446;28;20088;-73
2021/10/03 10:45:26;;;;;;;3.35;3.00;;;;;;;30.90;32.07;100583.69;5094936;28;19911;-72
2021/10/03 10:48:10;;;;;;;3.70;3.40;;;;;;;30.74;31.89;100596.44;5093936;28;20024;-73
2021/10/03 10:51:00;;;;;;;3.65;2.90;;;;;;;30.53;32.22;100589.75;5093957;28;20031;-73
2021/10/03 10:53:36;;;;;;;3.13;2.92;;;;;;;30.65;32.16;100570.63;5093704;28;20028;-71
2021/10/03 10:56:02;;;;;;;3.80;3.05;;;;;;;30.62;31.78;100591.72;5077608;28;20032;-73
2021/10/03 10:58:29;;;;;;;2.90;2.70;;;;;;;30.43;32.45;100584.56;5093851;28;20028;-73
2021/10/03 11:01:06;;;;;;;3.78;3.42;;;;;;;30.50;32.17;100552.59;5093726;28;20111;-73
2021/10/03 11:03:41;;;;;;;2.80;2.60;;;;;;;30.38;33.00;100588.13;5093318;28;20062;-74
2021/10/03 11:06:24;;;;;;;3.28;3.08;;;;;;;31.16;31.90;100581.00;5093645;28;20044;-73
2021/10/03 11:09:06;;;;;;;;;;;;;;;30.30;32.45;100581.94;5094323;28;20028;-72
2021/10/03 11:11:33;;;;;;;3.08;2.88;;;;;;;30.35;32.05;100569.00;5093259;28;19912;-73
2021/10/03 11:14:01;;;;;;;3.22;2.92;;;;;;;30.59;33.22;100569.75;5094238;28;20039;-71
2021/10/03 11:16:32;;;;;;;3.20;3.00;;;;;;;30.55;32.54;100574.88;5093761;28;20031;-72
2021/10/03 11:19:21;;;;;;;4.65;3.20;;;;;;;31.17;31.47;100576.03;5094008;28;20374;-72
2021/10/03 11:22:02;;;;;;;3.10;2.80;;;;;;;31.61;30.77;100578.06;5095020;28;20027;-73
2021/10/03 11:24:34;;;;;;;2.83;2.63;;;;;;;31.50;30.81;100567.97;5095006;28;20031;-72
2021/10/03 11:27:17;;;;;;;3.20;3.00;;;;;;;31.59;30.86;100569.13;5094243;28;20028;-73
2021/10/03 11:29:55;;;;;;;2.70;2.50;;;;;;;31.43;30.88;100567.63;5093760;28;20254;-74
2021/10/03 11:32:24;;;;;;;3.78;2.72;;;;;;;31.21;31.52;100563.03;5093484;28;20032;-74